createdAt,value
2023-05-14T00:02:41.138Z,14.25
2023-05-14T00:05:35.024Z,13.45
2023-05-14T00:08:29.009Z,13.82
2023-05-14T00:11:23.087Z,14.45
2023-05-14T00:14:10.071Z,13.48
2023-05-14T00:16:50.034Z,13.60
2023-05-14T00:19:44.049Z,13.98
2023-05-14T00:22:31.066Z,13.57
2023-05-14T00:25:04.134Z,14.00
2023-05-14T00:27:51.024Z,15.43
2023-05-14T00:30:31.014Z,14.63
2023-05-14T00:33:25.031Z,14.23
2023-05-14T00:36:19.043Z,14.25
2023-05-14T00:39:06.054Z,14.23
2023-05-14T00:41:46.032Z,13.95
2023-05-14T00:44:33.069Z,14.15
2023-05-14T00:47:10.174Z,14.30
2023-05-14T00:49:57.029Z,15.38
2023-05-14T00:52:31.131Z,14.88
2023-05-14T00:55:23.059Z,15.85
2023-05-14T00:58:01.193Z,15.65
2023-05-14T01:00:49.028Z,14.88
2023-05-14T01:03:22.221Z,17.23
2023-05-14T01:06:33.077Z,17.13
2023-05-14T01:09:21.094Z,16.45
2023-05-14T01:12:48.050Z,15.93
2023-05-14T01:15:40.033Z,15.05
2023-05-14T01:18:20.145Z,15.93
2023-05-14T01:21:08.051Z,16.00
2023-05-14T01:23:41.210Z,15.18
2023-05-14T01:26:28.086Z,15.88
2023-05-14T01:29:12.036Z,17.23
2023-05-14T01:32:02.076Z,17.15
2023-05-14T01:34:37.199Z,17.10
2023-05-14T01:37:24.092Z,16.45
2023-05-14T01:39:59.212Z,14.50
2023-05-14T01:42:46.085Z,15.77
2023-05-14T01:45:26.058Z,17.17
2023-05-14T01:48:20.062Z,16.05
2023-05-14T01:51:07.081Z,17.00
2023-05-14T01:53:40.277Z,18.33
2023-05-14T01:56:30.068Z,20.05
2023-05-14T01:59:10.078Z,20.65
2023-05-14T02:02:04.068Z,20.80
2023-05-14T02:04:51.082Z,22.38
2023-05-14T02:07:24.160Z,19.48
2023-05-14T02:10:12.110Z,21.17
2023-05-14T02:12:45.258Z,20.25
2023-05-14T02:15:32.104Z,20.08
2023-05-14T02:18:05.181Z,19.48
2023-05-14T02:20:53.069Z,18.63
2023-05-14T02:23:41.198Z,17.42
2023-05-14T02:26:36.106Z,17.77
2023-05-14T02:29:23.081Z,16.55
2023-05-14T02:31:56.259Z,15.73
2023-05-14T02:34:50.089Z,15.65
2023-05-14T02:37:44.076Z,16.88
2023-05-14T02:40:32.289Z,15.70
2023-05-14T02:43:13.085Z,13.80
2023-05-14T02:46:07.087Z,15.23
2023-05-14T02:48:54.105Z,14.15
2023-05-14T02:51:27.385Z,14.65
2023-05-14T02:54:14.091Z,14.63
2023-05-14T02:56:54.105Z,15.57
2023-05-14T02:59:48.079Z,14.95
2023-05-14T03:02:35.210Z,14.45
2023-05-14T03:05:09.529Z,13.80
2023-05-14T03:07:58.115Z,13.90
2023-05-14T03:10:39.128Z,13.68
2023-05-14T03:13:33.094Z,12.90
2023-05-14T03:16:27.171Z,14.65
2023-05-14T03:19:21.086Z,14.65
2023-05-14T03:22:15.120Z,14.13
2023-05-14T03:25:02.097Z,14.13
2023-05-14T03:27:35.264Z,14.50
2023-05-14T03:30:22.440Z,13.95
2023-05-14T03:32:56.267Z,13.90
2023-05-14T03:35:43.101Z,14.57
2023-05-14T03:38:23.110Z,14.18
2023-05-14T03:41:17.121Z,14.88
2023-05-14T03:44:04.106Z,14.43
2023-05-14T03:46:37.212Z,15.35
2023-05-14T03:49:24.099Z,15.30
2023-05-14T03:51:59.361Z,15.63
2023-05-14T03:54:48.110Z,14.77
2023-05-14T03:57:28.108Z,15.00
2023-05-14T04:00:22.338Z,15.52
2023-05-14T04:03:09.195Z,16.50
2023-05-14T04:05:42.259Z,16.30
2023-05-14T04:08:29.114Z,15.63
2023-05-14T04:11:09.106Z,15.85
2023-05-14T04:14:03.136Z,15.10
2023-05-14T04:16:50.151Z,14.90
2023-05-14T04:19:23.246Z,14.85
2023-05-14T04:22:10.106Z,15.43
2023-05-14T04:24:43.207Z,16.40
2023-05-14T04:27:30.136Z,14.55
2023-05-14T04:30:10.120Z,15.48
2023-05-14T04:32:57.180Z,15.35
2023-05-14T04:35:31.293Z,15.45
2023-05-14T04:38:18.136Z,15.07
2023-05-14T04:40:58.115Z,15.82
2023-05-14T04:43:53.137Z,15.45
2023-05-14T04:46:40.126Z,14.93
2023-05-14T04:49:13.313Z,15.23
2023-05-14T04:52:00.144Z,15.27
2023-05-14T04:54:40.232Z,14.85
2023-05-14T04:57:27.128Z,14.85
2023-05-14T05:00:07.142Z,14.70
2023-05-14T05:03:01.227Z,15.27
2023-05-14T05:05:48.141Z,14.88
2023-05-14T05:08:21.294Z,13.93
2023-05-14T05:11:08.156Z,13.45
2023-05-14T05:13:48.137Z,13.65
2023-05-14T05:16:35.244Z,14.73
2023-05-14T05:19:15.345Z,14.43
2023-05-14T05:22:05.152Z,14.95
2023-05-14T05:24:45.208Z,16.10
2023-05-14T05:27:32.154Z,14.75
2023-05-14T05:30:06.534Z,15.77
2023-05-14T05:32:53.240Z,15.10
2023-05-14T05:35:26.264Z,15.35
2023-05-14T05:38:14.204Z,14.90
2023-05-14T05:40:47.971Z,15.95
2023-05-14T05:43:35.193Z,14.75
2023-05-14T05:46:08.331Z,13.75
2023-05-14T05:48:55.148Z,14.43
2023-05-14T05:51:28.282Z,13.75
2023-05-14T05:54:15.163Z,12.90
2023-05-14T05:56:48.369Z,15.20
2023-05-14T05:59:35.171Z,15.25
2023-05-14T06:02:08.328Z,16.10
2023-05-14T06:04:55.188Z,15.60
2023-05-14T06:07:28.398Z,16.13
2023-05-14T06:10:15.181Z,15.68
2023-05-14T06:12:48.303Z,16.27
2023-05-14T06:15:35.162Z,12.82
2023-05-14T06:18:08.318Z,15.07
2023-05-14T06:20:55.169Z,15.07
2023-05-14T06:23:28.275Z,15.60
2023-05-14T06:26:15.200Z,14.70
2023-05-14T06:28:55.221Z,14.93
2023-05-14T06:31:42.331Z,15.20
2023-05-14T06:34:22.203Z,14.38
2023-05-14T06:37:16.184Z,14.40
2023-05-14T06:40:03.196Z,14.55
2023-05-14T06:42:36.377Z,15.48
2023-05-14T06:45:23.181Z,15.77
2023-05-14T06:48:03.239Z,14.80
2023-05-14T06:50:57.301Z,15.32
2023-05-14T06:53:44.188Z,14.70
2023-05-14T06:56:17.310Z,15.05
2023-05-14T06:58:57.188Z,15.50
2023-05-14T07:01:37.436Z,14.55
2023-05-14T07:04:17.236Z,15.13
2023-05-14T07:06:57.320Z,13.70
2023-05-14T07:09:37.222Z,15.68
2023-05-14T07:12:17.305Z,15.88
2023-05-14T07:14:58.222Z,15.05
2023-05-14T07:17:38.295Z,12.50
2023-05-14T07:20:12.300Z,12.40
2023-05-14T07:22:59.211Z,12.60
2023-05-14T07:25:32.755Z,12.60
2023-05-14T07:28:19.218Z,12.27
2023-05-14T07:30:52.431Z,11.85
2023-05-14T07:33:39.239Z,12.25
2023-05-14T07:36:20.221Z,12.57
2023-05-14T07:39:07.217Z,12.55
2023-05-14T07:41:40.348Z,11.85
2023-05-14T07:44:28.221Z,12.50
2023-05-14T07:47:01.363Z,12.18
2023-05-14T07:49:48.217Z,13.45
2023-05-14T07:52:21.313Z,12.63
2023-05-14T07:55:10.242Z,12.23
2023-05-14T07:57:43.311Z,12.07
2023-05-14T08:00:30.233Z,11.38
2023-05-14T08:03:03.826Z,11.25
2023-05-14T08:05:51.214Z,11.70
2023-05-14T08:08:24.374Z,11.15
2023-05-14T08:11:11.268Z,11.82
2023-05-14T08:13:44.394Z,11.63
2023-05-14T08:16:32.252Z,11.15
2023-05-14T08:19:12.257Z,11.60
2023-05-14T08:22:06.247Z,11.93
2023-05-14T08:24:53.217Z,11.65
2023-05-14T08:27:26.407Z,12.00
2023-05-14T08:30:14.251Z,11.85
2023-05-14T08:32:47.447Z,11.27
2023-05-14T08:35:41.289Z,12.10
2023-05-14T08:38:35.227Z,11.57
2023-05-14T08:41:23.272Z,12.23
2023-05-14T08:44:39.257Z,12.95
2023-05-14T08:47:28.324Z,12.23
2023-05-14T08:50:04.685Z,12.20
2023-05-14T08:52:52.277Z,13.05
2023-05-14T08:55:26.389Z,12.57
2023-05-14T08:58:13.279Z,12.48
2023-05-14T09:00:53.273Z,12.68
2023-05-14T09:03:48.304Z,11.93
2023-05-14T09:06:42.271Z,12.63
2023-05-14T09:09:30.279Z,12.10
2023-05-14T09:12:10.268Z,12.02
2023-05-14T09:15:04.296Z,11.80
2023-05-14T09:17:54.294Z,12.95
2023-05-14T09:20:28.530Z,11.77
2023-05-14T09:23:15.352Z,12.73
2023-05-14T09:25:49.477Z,13.55
2023-05-14T09:28:37.313Z,13.25
2023-05-14T09:31:10.421Z,12.35
2023-05-14T09:33:58.278Z,11.85
2023-05-14T09:36:39.259Z,11.65
2023-05-14T09:39:33.372Z,10.85
2023-05-14T09:42:20.281Z,12.65
2023-05-14T09:44:53.415Z,12.73
2023-05-14T09:47:40.393Z,12.10
2023-05-14T09:50:14.488Z,11.35
2023-05-14T09:53:02.295Z,11.00
2023-05-14T09:55:36.610Z,12.07
2023-05-14T09:58:23.306Z,11.00
2023-05-14T10:00:58.712Z,11.02
2023-05-14T10:03:45.313Z,11.68
2023-05-14T10:06:28.298Z,11.75
2023-05-14T10:09:19.320Z,12.68
2023-05-14T10:11:56.475Z,11.85
2023-05-14T10:14:47.341Z,11.60
2023-05-14T10:17:20.639Z,11.57
2023-05-14T10:20:09.345Z,11.18
2023-05-14T10:22:42.388Z,11.73
2023-05-14T10:25:30.318Z,10.52
2023-05-14T10:28:04.483Z,10.70
2023-05-14T10:30:52.415Z,10.48
2023-05-14T10:33:25.455Z,10.55
2023-05-14T10:36:14.320Z,10.80
2023-05-14T10:38:47.481Z,10.65
2023-05-14T10:41:34.315Z,10.00
2023-05-14T10:44:15.543Z,10.45
2023-05-14T10:47:03.405Z,10.38
2023-05-14T10:49:43.463Z,9.82
2023-05-14T10:52:31.381Z,10.77
2023-05-14T10:55:10.276Z,11.20
2023-05-14T10:57:59.351Z,10.30
2023-05-14T11:00:40.327Z,10.00
2023-05-14T11:03:34.426Z,9.82
2023-05-14T11:06:10.597Z,10.52
2023-05-14T11:08:57.360Z,12.02
2023-05-14T11:11:30.524Z,10.75
2023-05-14T11:14:17.332Z,10.93
2023-05-14T11:16:50.551Z,15.30
2023-05-14T11:19:37.401Z,15.80
2023-05-14T11:22:13.703Z,12.98
2023-05-14T11:25:00.393Z,14.27
2023-05-14T11:27:33.502Z,13.95
2023-05-14T11:30:25.601Z,13.63
2023-05-14T11:33:01.785Z,14.80
2023-05-14T11:35:52.385Z,14.63
2023-05-14T11:38:27.556Z,15.32
2023-05-14T11:41:14.390Z,15.23
2023-05-14T11:43:48.540Z,15.85
2023-05-14T11:46:37.424Z,15.48
2023-05-14T11:49:11.514Z,15.13
2023-05-14T11:52:09.420Z,15.02
2023-05-14T11:54:42.573Z,15.50
2023-05-14T11:57:29.429Z,15.30
2023-05-14T12:00:04.752Z,16.88
2023-05-14T12:02:51.436Z,15.73
2023-05-14T12:05:25.518Z,15.68
2023-05-14T12:08:37.483Z,15.27
2023-05-14T12:11:10.584Z,15.18
2023-05-14T12:13:57.416Z,14.15
2023-05-14T12:16:30.823Z,14.02
2023-05-14T12:19:20.411Z,12.63
2023-05-14T12:21:55.673Z,12.68
2023-05-14T12:24:42.387Z,12.40
2023-05-14T12:27:17.508Z,11.48
2023-05-14T12:32:46.626Z,12.40
2023-05-14T12:35:33.416Z,13.80
2023-05-14T12:38:06.620Z,13.57
2023-05-14T12:40:53.488Z,12.88
2023-05-14T12:43:38.413Z,11.88
2023-05-14T12:46:28.160Z,9.93
2023-05-14T12:49:01.548Z,13.88
2023-05-14T12:51:48.390Z,13.25
2023-05-14T12:54:24.232Z,13.75
2023-05-14T12:57:11.416Z,15.07
2023-05-14T12:59:51.479Z,12.05
2023-05-14T13:02:45.500Z,10.77
2023-05-14T13:05:32.418Z,11.43
2023-05-14T13:08:14.505Z,12.13
2023-05-14T13:11:02.424Z,11.50
2023-05-14T13:13:44.450Z,10.50
2023-05-14T13:16:34.502Z,11.50
2023-05-14T13:19:07.741Z,10.50
2023-05-14T13:21:54.492Z,10.88
2023-05-14T13:24:35.579Z,10.63
2023-05-14T13:27:22.512Z,11.20
2023-05-14T13:30:02.482Z,10.80
2023-05-14T13:32:56.530Z,11.15
2023-05-14T13:35:50.487Z,10.23
2023-05-14T13:38:44.488Z,10.75
2023-05-14T13:41:32.579Z,9.43
2023-05-14T13:44:05.877Z,10.23
2023-05-14T13:46:53.682Z,10.77
2023-05-14T13:49:27.601Z,10.55
2023-05-14T13:52:14.491Z,9.45
2023-05-14T13:54:54.531Z,10.57
2023-05-14T13:57:49.471Z,9.93
2023-05-14T14:00:36.553Z,10.00
2023-05-14T14:03:09.670Z,9.90
2023-05-14T14:05:56.532Z,10.40
2023-05-14T14:08:37.488Z,11.07
2023-05-14T14:11:31.696Z,10.40
2023-05-14T14:14:18.678Z,11.00
2023-05-14T14:16:52.798Z,10.90
2023-05-14T14:19:39.595Z,10.73
2023-05-14T14:22:27.126Z,10.73
2023-05-14T14:25:22.820Z,10.27
2023-05-14T14:28:16.508Z,10.18
2023-05-14T14:31:03.534Z,10.30
2023-05-14T14:33:43.523Z,9.98
2023-05-14T14:36:38.493Z,10.77
2023-05-14T14:39:25.528Z,10.00
2023-05-14T14:41:58.594Z,10.48
2023-05-14T14:44:45.532Z,10.27
2023-05-14T14:47:18.626Z,10.57
2023-05-14T14:50:05.590Z,9.93
2023-05-14T14:52:46.166Z,10.77
2023-05-14T14:55:39.547Z,11.75
2023-05-14T14:58:28.541Z,9.93
2023-05-14T15:01:03.739Z,10.82
2023-05-14T15:03:52.619Z,10.80
2023-05-14T15:06:32.545Z,10.35
2023-05-14T15:09:26.495Z,10.23
2023-05-14T15:12:15.559Z,10.80
2023-05-14T15:14:48.776Z,10.30
2023-05-14T15:17:35.601Z,10.48
2023-05-14T15:20:09.084Z,10.68
2023-05-14T15:22:58.617Z,9.07
2023-05-14T15:25:40.551Z,10.10
2023-05-14T15:28:36.544Z,10.82
2023-05-14T15:31:30.577Z,9.07
2023-05-14T15:34:18.539Z,9.90
2023-05-14T15:36:58.541Z,10.43
2023-05-14T15:39:45.550Z,9.73
2023-05-14T15:42:19.694Z,10.40
2023-05-14T15:45:06.559Z,9.63
2023-05-14T15:47:48.567Z,10.77
2023-05-14T15:50:42.545Z,10.27
2023-05-14T15:53:36.538Z,10.00
2023-05-14T15:56:23.528Z,9.90
2023-05-14T15:58:56.599Z,10.02
2023-05-14T16:01:43.576Z,9.88
2023-05-14T16:04:23.572Z,10.00
2023-05-14T16:07:19.547Z,9.35
2023-05-14T16:10:13.578Z,9.80
2023-05-14T16:13:07.552Z,9.43
2023-05-14T16:15:54.586Z,10.55
2023-05-14T16:18:27.897Z,9.88
2023-05-14T16:21:14.540Z,9.50
2023-05-14T16:23:47.684Z,9.55
2023-05-14T16:26:34.538Z,9.15
2023-05-14T16:29:08.457Z,9.70
2023-05-14T16:31:56.557Z,9.27
2023-05-14T16:34:29.680Z,9.73
2023-05-14T16:37:16.616Z,9.45
2023-05-14T16:39:56.592Z,9.90
2023-05-14T16:42:51.695Z,8.82
2023-05-14T16:45:40.618Z,9.48
2023-05-14T16:48:14.771Z,9.85
2023-05-14T16:51:02.674Z,10.48
2023-05-14T16:53:42.591Z,9.85
2023-05-14T16:56:36.642Z,10.13
2023-05-14T16:59:30.583Z,9.10
2023-05-14T17:02:17.549Z,10.05
2023-05-14T17:04:50.813Z,11.32
2023-05-14T17:07:40.579Z,11.70
2023-05-14T17:10:16.928Z,11.13
2023-05-14T17:13:03.556Z,10.40
2023-05-14T17:15:36.894Z,10.48
2023-05-14T17:18:23.542Z,10.20
2023-05-14T17:20:56.764Z,9.15
2023-05-14T17:23:43.555Z,9.00
2023-05-14T17:26:16.718Z,10.00
2023-05-14T17:29:03.561Z,10.60
2023-05-14T17:31:43.548Z,15.18
2023-05-14T17:34:30.577Z,17.23
2023-05-14T17:37:10.615Z,15.07
2023-05-14T17:40:04.585Z,10.82
2023-05-14T17:42:58.577Z,9.90
2023-05-14T17:45:54.542Z,9.27
2023-05-14T17:48:48.628Z,9.02
2023-05-14T17:51:42.603Z,9.38
2023-05-14T17:54:29.580Z,9.65
2023-05-14T17:57:03.682Z,9.23
2023-05-14T17:59:50.589Z,9.10
2023-05-14T18:02:23.716Z,9.55
2023-05-14T18:05:10.600Z,18.52
2023-05-14T18:07:44.429Z,13.90
2023-05-14T18:10:31.575Z,12.60
2023-05-14T18:13:12.602Z,11.82
2023-05-14T18:16:07.692Z,13.57
2023-05-14T18:18:55.646Z,11.73
2023-05-14T18:21:36.600Z,12.85
2023-05-14T18:24:30.605Z,10.55
2023-05-14T18:27:17.627Z,10.70
2023-05-14T18:29:58.610Z,12.65
2023-05-14T18:32:45.681Z,11.65
2023-05-14T18:35:27.790Z,12.20
2023-05-14T18:38:24.654Z,10.45
2023-05-14T18:41:11.601Z,10.48
2023-05-14T18:43:44.754Z,10.77
2023-05-14T18:46:32.661Z,10.95
2023-05-14T18:49:13.627Z,11.40
2023-05-14T18:52:08.616Z,10.60
2023-05-14T18:55:02.610Z,12.07
2023-05-14T18:57:50.664Z,12.93
2023-05-14T19:00:23.749Z,14.38
2023-05-14T19:03:10.780Z,11.75
2023-05-14T19:05:57.617Z,10.75
2023-05-14T19:08:51.621Z,10.98
2023-05-14T19:11:38.640Z,11.48
2023-05-14T19:14:11.807Z,13.30
2023-05-14T19:16:58.650Z,13.80
2023-05-14T19:19:31.799Z,12.32
2023-05-14T19:22:19.640Z,11.40
2023-05-14T19:24:59.622Z,11.93
2023-05-14T19:27:57.622Z,11.13
2023-05-14T19:30:44.636Z,11.00
2023-05-14T19:33:24.636Z,10.02
2023-05-14T19:36:18.635Z,10.93
2023-05-14T19:39:12.645Z,12.10
2023-05-14T19:42:07.630Z,13.15
2023-05-14T19:45:02.629Z,12.23
2023-05-14T19:47:56.693Z,12.27
2023-05-14T19:50:51.658Z,11.38
2023-05-14T19:53:38.640Z,11.88
2023-05-14T19:56:12.425Z,12.93
2023-05-14T19:58:59.656Z,11.90
2023-05-14T20:01:34.428Z,11.57
2023-05-14T20:04:22.667Z,11.77
2023-05-14T20:07:05.647Z,12.45
2023-05-14T20:09:53.666Z,11.25
2023-05-14T20:12:27.815Z,12.52
2023-05-14T20:15:15.738Z,11.93
2023-05-14T20:17:50.068Z,12.32
2023-05-14T20:20:36.659Z,12.25
2023-05-14T20:23:16.672Z,10.75
2023-05-14T20:26:10.691Z,11.38
2023-05-14T20:28:57.841Z,11.23
2023-05-14T20:31:32.822Z,11.60
2023-05-14T20:34:19.637Z,11.45
2023-05-14T20:36:54.862Z,12.68
2023-05-14T20:39:41.665Z,12.20
2023-05-14T20:42:14.862Z,11.75
2023-05-14T20:45:01.702Z,13.10
2023-05-14T20:47:34.795Z,13.38
2023-05-14T20:50:21.662Z,12.65
2023-05-14T20:52:54.786Z,12.88
2023-05-14T20:55:41.691Z,13.07
2023-05-14T20:58:14.782Z,12.38
2023-05-14T21:01:01.661Z,12.75
2023-05-14T21:03:35.606Z,13.18
2023-05-14T21:06:22.666Z,12.98
2023-05-14T21:09:02.743Z,13.25
2023-05-14T21:11:49.680Z,11.93
2023-05-14T21:14:29.678Z,12.75
2023-05-14T21:17:23.717Z,12.50
2023-05-14T21:20:19.666Z,12.52
2023-05-14T21:23:06.694Z,12.75
2023-05-14T21:25:47.670Z,12.20
2023-05-14T21:28:41.687Z,13.75
2023-05-14T21:31:28.725Z,12.57
2023-05-14T21:34:08.715Z,13.27
2023-05-14T21:37:02.691Z,12.52
2023-05-14T21:39:49.681Z,12.82
2023-05-14T21:42:22.812Z,13.90
2023-05-14T21:45:09.696Z,12.82
2023-05-14T21:47:43.923Z,13.15
2023-05-14T21:50:30.715Z,14.27
2023-05-14T21:53:10.696Z,13.85
2023-05-14T21:55:57.700Z,13.88
2023-05-14T21:58:30.809Z,13.50
2023-05-14T22:01:17.735Z,13.65
2023-05-14T22:03:50.823Z,14.38
2023-05-14T22:06:38.757Z,12.85
2023-05-14T22:09:18.739Z,13.77
2023-05-14T22:12:05.713Z,13.27
2023-05-14T22:14:38.855Z,13.95
2023-05-14T22:17:25.767Z,14.23
2023-05-14T22:19:58.851Z,13.50
2023-05-14T22:22:45.708Z,12.85
2023-05-14T22:25:26.070Z,14.00
2023-05-14T22:28:19.709Z,13.43
2023-05-14T22:31:13.812Z,14.60
2023-05-14T22:34:07.755Z,14.88
2023-05-14T22:37:01.700Z,14.60
2023-05-14T22:39:55.738Z,14.13
2023-05-14T22:42:42.706Z,14.48
2023-05-14T22:45:16.798Z,13.88
2023-05-14T22:48:03.786Z,14.88
2023-05-14T22:50:43.714Z,15.25
2023-05-14T22:53:37.768Z,15.43
2023-05-14T22:56:25.732Z,15.18
2023-05-14T22:59:00.386Z,16.13
2023-05-14T23:01:46.798Z,15.50
2023-05-14T23:04:19.847Z,15.30
2023-05-14T23:07:06.728Z,15.43
2023-05-14T23:09:39.857Z,14.65
2023-05-14T23:12:26.812Z,16.90
2023-05-14T23:15:09.731Z,15.63
2023-05-14T23:18:03.824Z,15.52
2023-05-14T23:20:50.748Z,16.50
2023-05-14T23:23:23.830Z,15.48
2023-05-14T23:26:10.772Z,16.02
2023-05-14T23:28:50.732Z,14.95
2023-05-14T23:31:37.768Z,14.77
2023-05-14T23:34:17.754Z,15.18
2023-05-14T23:37:11.727Z,15.52
2023-05-14T23:39:58.739Z,15.98
2023-05-14T23:42:32.133Z,15.57
2023-05-14T23:45:19.756Z,15.52
2023-05-14T23:47:52.877Z,15.68
2023-05-14T23:50:39.774Z,15.90
2023-05-14T23:53:12.855Z,16.17
2023-05-14T23:55:59.760Z,15.48
2023-05-14T23:58:33.750Z,15.45
